Time;durP1;ratioP1;P1;durP2;ratioP2;P2;SDS_P1;SDS_P2;PMS_P1;PMS_P2;Temp;Humidity;BMP_temperature;BMP_pressure;BME280_temperature;BME280_humidity;BME280_pressure;Samples;Min_cycle;Max_cycle;Signal;HPM_P1;HPM_P2
2021/11/10 00:00:21;;;;;;;10.55;4.35;;;3.90;86.50;;;;;;6228801;28;20129;-81
2021/11/10 00:03:23;;;;;;;9.60;4.15;;;3.80;86.10;;;;;;6229579;28;20069;-82
2021/11/10 00:06:25;;;;;;;9.95;4.10;;;3.70;86.00;;;;;;6229292;28;20046;-83
2021/11/10 00:09:27;;;;;;;16.23;3.13;;;3.70;86.00;;;;;;6228561;28;20046;-80
2021/11/10 00:12:28;;;;;;;11.32;6.88;;;3.60;86.00;;;;;;6227605;28;20050;-81
2021/11/10 00:15:31;;;;;;;9.55;4.50;;;3.60;85.90;;;;;;6228207;28;20423;-80
2021/11/10 00:18:33;;;;;;;10.73;3.90;;;3.50;85.90;;;;;;6227782;28;20046;-83
2021/11/10 00:21:35;;;;;;;12.40;5.18;;;3.50;86.40;;;;;;6228579;28;20072;-82
2021/11/10 00:24:37;;;;;;;6.32;3.47;;;3.40;86.40;;;;;;6228869;28;20057;-82
2021/11/10 00:27:39;;;;;;;8.57;4.05;;;3.40;86.60;;;;;;6228136;28;20141;-82
2021/11/10 00:30:42;;;;;;;9.77;4.18;;;3.30;86.50;;;;;;6230453;28;20045;-83
2021/11/10 00:33:44;;;;;;;9.85;4.07;;;3.30;86.70;;;;;;6229331;28;20058;-82
2021/11/10 00:36:46;;;;;;;9.98;5.20;;;3.30;86.50;;;;;;6229253;28;20124;-81
2021/11/10 00:39:48;;;;;;;14.00;4.95;;;3.20;86.80;;;;;;6228491;28;20056;-82
2021/11/10 00:42:50;;;;;;;15.00;4.63;;;3.10;86.80;;;;;;6243529;28;20075;-81
2021/11/10 00:45:53;;;;;;;10.50;5.30;;;3.10;86.80;;;;;;6232796;28;20052;-81
2021/11/10 00:48:55;;;;;;;11.57;4.40;;;3.00;86.80;;;;;;6230214;28;20042;-83
2021/11/10 00:51:57;;;;;;;12.93;3.78;;;3.00;86.90;;;;;;6231011;28;20052;-81
2021/11/10 00:54:58;;;;;;;8.10;5.00;;;2.90;87.00;;;;;;6231657;28;20462;-81
2021/11/10 00:58:00;;;;;;;12.90;4.53;;;2.90;87.30;;;;;;6219167;28;20050;-81
2021/11/10 01:01:03;;;;;;;13.60;4.72;;;2.80;87.10;;;;;;6227480;28;20096;-81
2021/11/10 01:04:05;;;;;;;10.55;5.07;;;2.70;87.40;;;;;;6230755;28;20049;-80
2021/11/10 01:07:07;;;;;;;8.63;4.15;;;2.70;87.50;;;;;;6230662;28;20054;-81
2021/11/10 01:10:09;;;;;;;12.38;3.72;;;2.70;87.70;;;;;;6229144;28;20100;-81
2021/11/10 01:13:11;;;;;;;9.10;4.00;;;2.60;87.70;;;;;;6230033;28;20527;-81
2021/11/10 01:16:15;;;;;;;11.00;4.55;;;2.60;87.80;;;;;;6229823;28;20046;-81
2021/11/10 01:19:17;;;;;;;9.10;4.30;;;2.50;87.70;;;;;;6230493;28;20048;-81
2021/11/10 01:22:18;;;;;;;11.30;4.32;;;2.50;87.80;;;;;;6229687;28;20555;-83
2021/11/10 01:25:20;;;;;;;11.10;3.78;;;2.50;87.70;;;;;;6229835;28;20050;-82
2021/11/10 01:28:22;;;;;;;10.75;4.32;;;2.40;87.80;;;;;;6229369;28;20056;-80
2021/11/10 01:31:25;;;;;;;12.35;4.25;;;2.40;87.90;;;;;;6241347;28;20073;-82
2021/11/10 01:34:27;;;;;;;7.28;4.47;;;2.40;88.00;;;;;;6219164;28;20050;-82
2021/11/10 01:37:29;;;;;;;10.45;4.20;;;2.40;87.90;;;;;;6208540;28;20050;-81
2021/11/10 01:40:31;;;;;;;6.50;3.63;;;2.30;87.70;;;;;;6207695;28;20046;-82
2021/11/10 01:43:33;;;;;;;8.82;4.70;;;2.30;87.90;;;;;;6207910;28;20073;-82
2021/11/10 01:46:37;;;;;;;7.90;4.00;;;2.20;87.90;;;;;;6207194;28;20496;-82
2021/11/10 01:49:41;;;;;;;10.93;4.03;;;2.20;87.90;;;;;;6207011;28;20038;-82
2021/11/10 01:52:43;;;;;;;6.25;3.55;;;2.10;87.80;;;;;;6205868;28;20126;-82
2021/11/10 01:55:45;;;;;;;11.70;4.18;;;2.10;88.10;;;;;;6206871;28;20105;-81
2021/11/10 01:58:47;;;;;;;8.43;3.55;;;2.10;88.10;;;;;;6205559;28;20237;-82
2021/11/10 02:01:50;;;;;;;7.18;4.28;;;2.10;88.40;;;;;;6205041;28;20236;-81
2021/11/10 02:04:52;;;;;;;9.18;5.10;;;2.10;88.20;;;;;;6207723;28;20590;-81
2021/11/10 02:07:54;;;;;;;10.65;3.90;;;2.10;87.90;;;;;;6206600;28;20054;-82
2021/11/10 02:10:58;;;;;;;7.95;3.78;;;2.10;88.10;;;;;;6205998;28;20042;-81
2021/11/10 02:14:00;;;;;;;6.63;4.25;;;2.00;88.00;;;;;;6205692;28;20052;-81
2021/11/10 02:17:04;;;;;;;9.07;4.03;;;2.10;88.00;;;;;;6205495;28;20042;-82
2021/11/10 02:20:09;;;;;;;7.88;3.72;;;2.10;87.90;;;;;;6205300;28;20046;-80
2021/11/10 02:23:12;;;;;;;7.88;3.85;;;2.00;87.70;;;;;;6206219;28;20086;-80
2021/11/10 02:26:15;;;;;;;12.38;4.07;;;2.00;87.60;;;;;;6205022;28;20522;-81
2021/11/10 02:29:19;;;;;;;5.72;3.50;;;2.00;87.50;;;;;;6204153;28;20640;-82
2021/11/10 02:32:21;;;;;;;6.93;3.30;;;2.00;87.40;;;;;;6204829;28;20042;-80
2021/11/10 02:35:25;;;;;;;7.80;3.70;;;2.00;87.40;;;;;;6204893;28;20054;-80
2021/11/10 02:38:29;;;;;;;8.75;3.88;;;1.90;87.70;;;;;;6204414;28;20058;-82
2021/11/10 02:41:32;;;;;;;8.93;3.88;;;1.90;87.90;;;;;;6203802;28;20500;-81
2021/11/10 02:44:34;;;;;;;9.10;4.47;;;1.80;88.30;;;;;;6203916;28;20046;-82
2021/11/10 02:47:36;;;;;;;12.88;4.88;;;1.90;88.60;;;;;;6204144;28;20128;-81
2021/11/10 02:50:37;;;;;;;9.38;4.90;;;1.90;88.50;;;;;;6203793;28;20447;-81
2021/11/10 02:53:41;;;;;;;9.43;4.90;;;1.90;88.30;;;;;;6204101;28;20129;-81
2021/11/10 02:56:42;;;;;;;11.65;4.65;;;1.80;88.30;;;;;;6203876;28;20504;-82
2021/11/10 02:59:45;;;;;;;7.18;4.68;;;1.80;88.10;;;;;;6211563;28;20140;-81
2021/11/10 03:02:47;;;;;;;9.45;4.68;;;1.80;88.60;;;;;;6227824;28;20476;-81
2021/11/10 03:05:49;;;;;;;8.30;4.00;;;1.80;89.00;;;;;;6226716;28;20064;-81
2021/11/10 03:08:52;;;;;;;14.82;4.53;;;1.80;88.60;;;;;;6227611;28;20052;-81
2021/11/10 03:11:56;;;;;;;10.82;4.38;;;1.80;88.70;;;;;;6227589;28;20046;-82
2021/11/10 03:14:58;;;;;;;9.82;4.72;;;1.80;88.70;;;;;;6228688;28;20054;-80
2021/11/10 03:18:00;;;;;;;13.23;5.05;;;1.70;88.60;;;;;;6227805;28;20535;-81
2021/11/10 03:21:02;;;;;;;11.48;4.82;;;1.70;88.70;;;;;;6227011;28;20128;-82
2021/11/10 03:24:05;;;;;;;15.02;4.85;;;1.70;89.00;;;;;;6227883;28;20125;-82
2021/11/10 03:27:08;;;;;;;12.30;4.82;;;1.70;89.00;;;;;;6227939;28;20053;-82
2021/11/10 03:30:10;;;;;;;12.20;4.63;;;1.70;88.90;;;;;;6229290;28;20046;-80
2021/11/10 03:33:12;;;;;;;12.55;4.90;;;1.70;89.30;;;;;;6227698;28;20085;-81
2021/11/10 03:36:15;;;;;;;9.23;4.07;;;1.70;89.40;;;;;;6227499;28;20046;-80
2021/11/10 03:39:18;;;;;;;8.75;4.47;;;1.70;89.30;;;;;;6226569;28;20359;-81
2021/11/10 03:42:21;;;;;;;8.30;4.63;;;1.70;89.30;;;;;;6226992;28;20052;-80
2021/11/10 03:45:22;;;;;;;9.82;4.65;;;1.70;89.20;;;;;;6226248;28;20046;-81
2021/11/10 03:48:24;;;;;;;9.40;5.43;;;1.70;89.40;;;;;;6226878;28;20052;-81
2021/11/10 03:51:27;;;;;;;8.02;4.57;;;1.70;89.10;;;;;;6227563;28;20068;-81
2021/11/10 03:54:30;;;;;;;13.32;6.10;;;1.70;89.70;;;;;;6227630;28;20042;-80
2021/11/10 03:57:32;;;;;;;12.43;4.80;;;1.70;89.10;;;;;;6228233;28;20052;-80
2021/11/10 04:00:33;;;;;;;10.68;4.45;;;1.70;89.00;;;;;;6221598;28;20065;-81
2021/11/10 04:03:36;;;;;;;14.32;5.00;;;1.60;89.00;;;;;;6204190;28;20054;-80
2021/11/10 04:06:38;;;;;;;9.38;4.68;;;1.70;89.20;;;;;;6202070;28;20056;-81
2021/11/10 04:09:41;;;;;;;15.68;4.63;;;1.70;89.10;;;;;;6201719;28;20341;-81
2021/11/10 04:12:43;;;;;;;14.98;4.70;;;1.60;89.10;;;;;;6201093;28;20080;-81
2021/11/10 04:15:45;;;;;;;8.07;4.53;;;1.60;89.00;;;;;;6201940;28;20046;-81
2021/11/10 04:18:48;;;;;;;11.40;5.47;;;1.70;89.00;;;;;;6202538;28;20057;-81
2021/11/10 04:21:50;;;;;;;13.63;4.97;;;1.60;89.10;;;;;;6201878;28;20049;-81
2021/11/10 04:24:54;;;;;;;12.98;5.07;;;1.60;89.10;;;;;;6201683;28;20074;-81
2021/11/10 04:27:56;;;;;;;8.60;4.65;;;1.60;89.10;;;;;;6201871;28;20046;-81
2021/11/10 04:30:59;;;;;;;9.48;4.65;;;1.60;89.10;;;;;;6202707;28;20053;-80
2021/11/10 04:34:01;;;;;;;7.75;4.45;;;1.60;89.10;;;;;;6201217;28;20046;-81
2021/11/10 04:37:04;;;;;;;16.13;4.72;;;1.60;89.10;;;;;;6201228;28;20051;-81
2021/11/10 04:40:10;;;;;;;6.47;4.35;;;1.50;89.00;;;;;;6201828;28;20519;-81
2021/11/10 04:43:12;;;;;;;9.48;4.80;;;1.60;88.80;;;;;;6202052;28;20054;-82
2021/11/10 04:46:19;;;;;;;12.63;6.18;;;1.60;88.50;;;;;;6202551;28;20755;-82
2021/11/10 04:49:21;;;;;;;11.57;5.70;;;1.60;88.40;;;;;;6203091;28;20073;-83
2021/11/10 04:52:24;;;;;;;10.27;5.43;;;1.60;88.50;;;;;;6202569;28;20122;-81
2021/11/10 04:55:28;;;;;;;12.18;4.80;;;1.60;88.80;;;;;;6202895;28;20076;-81
2021/11/10 04:58:30;;;;;;;11.68;5.60;;;1.50;88.60;;;;;;6202457;28;20201;-82
2021/11/10 05:01:38;;;;;;;9.20;4.50;;;1.50;88.80;;;;;;6201650;28;20516;-82
2021/11/10 05:04:41;;;;;;;15.73;4.22;;;1.50;89.10;;;;;;6221753;28;20042;-81
2021/11/10 05:07:43;;;;;;;8.88;4.13;;;1.50;89.00;;;;;;6235067;28;20050;-82
2021/11/10 05:10:46;;;;;;;10.23;4.25;;;1.40;88.90;;;;;;6233473;28;20042;-82
2021/11/10 05:13:48;;;;;;;8.57;4.05;;;1.50;88.90;;;;;;6229887;28;20049;-82
2021/11/10 05:16:50;;;;;;;9.90;4.43;;;1.50;88.80;;;;;;6228830;28;20046;-82
2021/11/10 05:19:52;;;;;;;9.25;4.20;;;1.50;88.90;;;;;;6228318;28;20053;-82
2021/11/10 05:22:54;;;;;;;7.82;4.25;;;1.50;88.70;;;;;;6229855;28;20093;-81
2021/11/10 05:25:58;;;;;;;9.63;4.22;;;1.50;88.90;;;;;;6228030;28;20050;-81
2021/11/10 05:29:00;;;;;;;9.95;3.90;;;1.50;88.80;;;;;;6232201;28;20046;-82
2021/11/10 05:32:02;;;;;;;8.45;3.80;;;1.50;88.70;;;;;;6240353;28;20049;-82
2021/11/10 05:35:04;;;;;;;12.52;4.80;;;1.50;88.80;;;;;;6236490;28;20050;-82
2021/11/10 05:38:06;;;;;;;9.82;4.47;;;1.50;88.80;;;;;;6234060;28;20049;-83
2021/11/10 05:41:09;;;;;;;10.60;6.32;;;1.50;88.80;;;;;;6233885;28;20046;-83
2021/11/10 05:44:11;;;;;;;17.48;4.60;;;1.50;88.50;;;;;;6232958;28;20092;-82
2021/11/10 05:47:13;;;;;;;9.20;4.18;;;1.50;88.50;;;;;;6233016;28;20414;-83
2021/11/10 05:50:16;;;;;;;8.23;4.43;;;1.50;88.40;;;;;;6232487;28;20048;-81
2021/11/10 05:53:18;;;;;;;10.55;4.25;;;1.50;88.10;;;;;;6233033;28;20041;-82
2021/11/10 05:56:22;;;;;;;32.92;5.63;;;1.50;88.00;;;;;;6234621;28;20430;-83
2021/11/10 05:59:24;;;;;;;6.93;4.00;;;1.50;88.00;;;;;;6236795;28;20058;-84
2021/11/10 06:02:26;;;;;;;10.30;3.92;;;1.50;87.80;;;;;;6229151;28;20054;-82
2021/11/10 06:05:28;;;;;;;16.15;4.97;;;1.50;87.70;;;;;;6211113;28;20398;-82
2021/11/10 06:08:30;;;;;;;11.80;4.47;;;1.50;87.60;;;;;;6211099;28;20413;-81
2021/11/10 06:11:33;;;;;;;11.10;4.80;;;1.50;87.90;;;;;;6211823;28;20485;-83
2021/11/10 06:14:35;;;;;;;17.13;4.95;;;1.50;87.80;;;;;;6211923;28;20050;-84
2021/11/10 06:17:37;;;;;;;7.82;4.45;;;1.60;88.10;;;;;;6212458;28;20062;-83
2021/11/10 06:20:39;;;;;;;11.65;4.65;;;1.70;87.70;;;;;;6211226;28;20106;-83
2021/11/10 06:23:41;;;;;;;14.75;5.03;;;1.70;87.70;;;;;;6211873;28;20058;-84
2021/11/10 06:26:45;;;;;;;8.43;4.45;;;1.70;88.00;;;;;;6217213;28;20054;-84
2021/11/10 06:29:47;;;;;;;10.82;3.95;;;1.80;88.00;;;;;;6225006;28;20542;-84
2021/11/10 06:32:49;;;;;;;10.95;6.38;;;1.80;87.80;;;;;;6209912;28;20078;-82
2021/11/10 06:35:50;;;;;;;12.82;4.40;;;1.80;87.90;;;;;;6208668;28;20054;-82
2021/11/10 06:38:52;;;;;;;34.38;6.50;;;1.80;88.70;;;;;;6205780;28;20136;-83
2021/11/10 06:41:56;;;;;;;21.90;7.05;;;1.80;88.80;;;;;;6205329;28;20044;-83
2021/11/10 06:44:58;;;;;;;15.43;6.13;;;1.90;88.80;;;;;;6207945;28;20050;-83
2021/11/10 06:47:59;;;;;;;15.23;6.93;;;1.80;88.70;;;;;;6214530;28;20093;-82
2021/11/10 06:51:01;;;;;;;25.80;7.80;;;1.90;88.80;;;;;;6208434;28;20042;-83
2021/11/10 06:54:03;;;;;;;16.15;6.88;;;1.90;88.70;;;;;;6206951;28;20097;-83
2021/11/10 06:57:07;;;;;;;9.23;5.53;;;1.90;88.60;;;;;;6207728;28;20543;-83
2021/11/10 07:00:11;;;;;;;15.02;6.72;;;2.00;88.40;;;;;;6208222;28;20497;-83
2021/11/10 07:03:14;;;;;;;16.85;6.28;;;2.10;88.40;;;;;;6210201;28;20208;-84
2021/11/10 07:06:25;;;;;;;22.88;5.97;;;2.10;88.00;;;;;;6205302;28;20052;-85
2021/11/10 07:09:27;;;;;;;15.18;5.80;;;2.20;87.90;;;;;;6202463;28;20163;-81
2021/11/10 07:13:04;;;;;;;11.30;4.60;;;2.30;87.80;;;;;;6206626;28;20185;-87
2021/11/10 07:16:06;;;;;;;12.10;6.00;;;2.40;87.60;;;;;;6206452;28;20560;-80
2021/11/10 07:19:08;;;;;;;19.20;6.32;;;2.50;87.50;;;;;;6205835;28;20517;-81
2021/11/10 07:22:10;;;;;;;17.25;6.75;;;2.70;87.90;;;;;;6203863;28;20048;-81
2021/11/10 07:25:24;;;;;;;15.15;7.43;;;2.80;88.10;;;;;;6206660;28;20097;-86
2021/11/10 07:28:27;;;;;;;12.93;6.25;;;3.00;87.80;;;;;;6200397;28;20461;-81
2021/11/10 07:31:29;;;;;;;16.27;6.78;;;3.10;87.60;;;;;;6182876;28;20102;-80
2021/11/10 07:34:31;;;;;;;20.80;7.82;;;3.30;87.70;;;;;;6182035;28;20049;-79
2021/11/10 07:37:33;;;;;;;16.70;7.47;;;3.40;87.60;;;;;;6190377;28;20046;-84
2021/11/10 07:40:35;;;;;;;15.10;6.85;;;3.50;87.50;;;;;;6215648;28;20121;-82
2021/11/10 07:43:38;;;;;;;10.75;6.00;;;3.70;87.50;;;;;;6231852;28;20116;-82
2021/11/10 07:46:49;;;;;;;10.30;6.25;;;3.80;87.20;;;;;;6206446;28;20073;-81
2021/11/10 07:49:52;;;;;;;22.52;6.40;;;3.90;87.30;;;;;;6207076;28;20050;-84
2021/11/10 07:53:35;;;;;;;12.38;5.93;;;4.00;87.30;;;;;;6207791;28;20137;-83
2021/11/10 07:56:37;;;;;;;15.50;6.38;;;4.20;87.40;;;;;;6124938;29;20395;-85
2021/11/10 07:59:40;;;;;;;9.75;6.07;;;4.50;87.20;;;;;;6211301;28;20061;-84
2021/11/10 08:02:43;;;;;;;13.45;6.15;;;4.60;86.80;;;;;;6212423;28;20120;-84
2021/11/10 08:05:45;;;;;;;15.15;7.32;;;5.00;86.40;;;;;;6198853;28;20046;-85
2021/11/10 08:08:47;;;;;;;11.80;5.28;;;5.10;86.10;;;;;;6202890;28;20046;-84
2021/11/10 08:11:49;;;;;;;11.90;5.13;;;5.30;85.60;;;;;;6211123;28;20142;-84
2021/11/10 08:14:52;;;;;;;13.73;5.82;;;5.50;85.30;;;;;;6211260;28;20562;-84
2021/11/10 08:17:56;;;;;;;14.05;6.50;;;5.70;84.80;;;;;;6210474;28;20109;-85
2021/11/10 08:20:57;;;;;;;11.93;4.95;;;6.10;84.80;;;;;;6206776;28;20042;-84
2021/11/10 08:24:01;;;;;;;11.55;6.25;;;6.40;83.90;;;;;;6207135;28;20062;-85
2021/11/10 08:27:03;;;;;;;7.88;4.28;;;6.70;83.20;;;;;;6207296;28;20066;-83
2021/11/10 08:30:09;;;;;;;9.40;5.13;;;7.10;82.10;;;;;;6207246;28;20098;-84
2021/11/10 08:33:11;;;;;;;6.82;3.63;;;7.40;81.60;;;;;;6207318;28;20046;-83
2021/11/10 08:36:13;;;;;;;16.70;5.50;;;7.60;80.50;;;;;;6204495;28;20069;-83
2021/11/10 08:39:15;;;;;;;8.02;3.97;;;7.80;79.50;;;;;;6222938;28;20049;-84
2021/11/10 08:42:17;;;;;;;10.57;4.65;;;8.00;78.70;;;;;;6243773;28;20046;-83
2021/11/10 08:45:24;;;;;;;7.13;3.35;;;8.20;78.30;;;;;;6251988;28;20098;-83
2021/11/10 08:48:27;;;;;;;10.73;6.03;;;8.40;77.50;;;;;;6239929;28;20050;-85
2021/11/10 08:51:29;;;;;;;6.90;4.40;;;8.60;77.20;;;;;;6237175;28;20133;-85
2021/11/10 08:54:31;;;;;;;11.48;5.50;;;8.80;76.30;;;;;;6237291;28;20045;-84
2021/11/10 08:57:34;;;;;;;12.45;6.30;;;8.90;75.00;;;;;;6241469;28;20097;-84
2021/11/10 09:00:38;;;;;;;9.85;4.90;;;9.00;74.70;;;;;;6219255;28;20427;-84
2021/11/10 09:03:39;;;;;;;10.95;4.53;;;8.80;74.50;;;;;;6191417;28;20077;-85
2021/11/10 09:06:41;;;;;;;6.72;4.40;;;8.80;75.10;;;;;;6185950;28;20046;-85
2021/11/10 09:09:44;;;;;;;11.15;5.25;;;8.70;74.90;;;;;;6225086;28;20042;-84
2021/11/10 09:12:47;;;;;;;7.68;4.78;;;8.80;75.10;;;;;;6232298;28;20046;-85
2021/11/10 09:15:51;;;;;;;13.70;5.18;;;8.80;74.90;;;;;;6213549;28;20050;-85
2021/11/10 09:18:53;;;;;;;12.23;5.22;;;8.90;75.10;;;;;;6192265;28;20058;-84
2021/11/10 09:21:54;;;;;;;10.13;5.30;;;8.80;74.40;;;;;;6189554;28;20742;-84
2021/11/10 09:24:56;;;;;;;8.65;4.50;;;8.80;74.60;;;;;;6185653;28;20042;-82
2021/11/10 09:28:01;;;;;;;13.40;6.80;;;8.90;74.70;;;;;;6185882;28;20412;-85
2021/11/10 09:31:04;;;;;;;15.45;5.20;;;8.90;74.70;;;;;;6184548;28;20051;-85
2021/11/10 09:34:11;;;;;;;8.32;5.00;;;9.00;74.80;;;;;;6186877;28;20134;-85
2021/11/10 09:37:13;;;;;;;12.23;5.25;;;9.10;74.50;;;;;;6195771;28;20500;-83
2021/11/10 09:40:17;;;;;;;8.57;4.88;;;9.20;74.50;;;;;;6216355;28;20042;-83
2021/11/10 09:43:19;;;;;;;9.32;4.85;;;9.30;74.00;;;;;;6237927;28;20104;-85
2021/11/10 09:46:23;;;;;;;12.20;5.47;;;9.50;73.30;;;;;;6230612;28;20091;-85
2021/11/10 09:49:24;;;;;;;12.07;6.18;;;9.60;72.80;;;;;;6229699;28;20124;-85
2021/11/10 09:52:26;;;;;;;9.23;5.10;;;9.80;72.70;;;;;;6226783;28;20052;-85
2021/11/10 09:55:31;;;;;;;11.18;5.82;;;9.90;72.70;;;;;;6230301;28;20054;-82
2021/11/10 09:58:34;;;;;;;8.82;5.55;;;10.00;72.10;;;;;;6207663;28;20227;-80
2021/11/10 10:01:40;;;;;;;6.88;4.68;;;10.20;72.00;;;;;;6205876;28;20046;-81
2021/11/10 10:04:43;;;;;;;8.57;5.30;;;10.40;71.50;;;;;;6206525;28;20051;-81
2021/11/10 10:07:48;;;;;;;9.93;5.30;;;10.70;70.80;;;;;;6197026;28;20069;-81
2021/11/10 10:10:51;;;;;;;8.40;5.10;;;11.00;70.10;;;;;;6182046;28;20057;-81
2021/11/10 10:13:53;;;;;;;8.35;4.80;;;11.30;69.40;;;;;;6182055;28;20066;-80
2021/11/10 10:16:56;;;;;;;12.10;5.95;;;11.50;68.80;;;;;;6182464;28;20066;-80
2021/11/10 10:19:58;;;;;;;7.80;5.18;;;11.70;68.10;;;;;;6182046;28;20049;-84
2021/11/10 10:23:05;;;;;;;16.08;6.35;;;12.00;67.40;;;;;;6181962;28;20050;-82
2021/11/10 10:26:11;;;;;;;11.20;5.78;;;12.40;66.40;;;;;;6182655;28;20057;-84
2021/11/10 10:29:13;;;;;;;12.10;5.28;;;12.50;65.80;;;;;;6181981;28;20528;-83
2021/11/10 10:32:16;;;;;;;11.75;5.85;;;12.50;65.40;;;;;;6182699;28;20046;-82
2021/11/10 10:35:28;;;;;;;11.77;5.65;;;12.50;65.20;;;;;;6178608;28;20053;-81
2021/11/10 10:38:34;;;;;;;9.63;6.40;;;12.50;64.90;;;;;;6192423;28;20049;-80
2021/11/10 10:41:38;;;;;;;9.18;5.53;;;12.60;64.80;;;;;;6184777;28;20047;-83
2021/11/10 10:44:44;;;;;;;8.77;5.40;;;12.90;64.60;;;;;;6180433;28;20409;-80
2021/11/10 10:47:57;;;;;;;6.95;4.70;;;13.20;63.50;;;;;;6180755;28;20487;-80
2021/11/10 10:51:03;;;;;;;9.85;5.63;;;13.60;62.40;;;;;;6179517;28;20061;-82
2021/11/10 10:54:09;;;;;;;10.20;6.57;;;13.90;61.10;;;;;;6177544;28;20047;-78
2021/11/10 10:57:12;;;;;;;13.65;6.10;;;14.30;60.30;;;;;;6177931;28;20046;-79
2021/11/10 11:00:15;;;;;;;9.48;6.03;;;14.60;59.20;;;;;;6176444;28;20051;-83
2021/11/10 11:03:30;;;;;;;16.88;6.45;;;14.80;58.10;;;;;;6187334;28;20133;-83
2021/11/10 11:06:37;;;;;;;10.55;5.88;;;15.00;57.30;;;;;;6202917;28;20058;-81
2021/11/10 11:09:43;;;;;;;11.32;6.07;;;15.20;56.70;;;;;;6203493;28;20056;-82
2021/11/10 11:12:53;;;;;;;13.45;6.05;;;15.50;56.40;;;;;;6204251;28;20057;-82
2021/11/10 11:16:03;;;;;;;9.27;5.10;;;15.70;54.80;;;;;;6204819;28;20046;-83
2021/11/10 11:19:17;;;;;;;10.00;4.90;;;15.90;54.80;;;;;;6203882;28;20148;-81
2021/11/10 11:22:19;;;;;;;9.55;5.55;;;16.00;54.30;;;;;;6204039;28;20048;-81
2021/11/10 11:25:23;;;;;;;13.60;6.03;;;16.00;54.30;;;;;;6202402;28;20057;-82
2021/11/10 11:28:25;;;;;;;10.25;5.93;;;16.00;54.40;;;;;;6205639;28;20050;-82
2021/11/10 11:31:35;;;;;;;9.00;5.88;;;16.10;53.80;;;;;;6206983;28;20050;-82
2021/11/10 11:34:49;;;;;;;9.68;5.32;;;16.00;53.10;;;;;;6203044;28;20055;-79
2021/11/10 11:37:51;;;;;;;14.30;5.88;;;16.00;53.20;;;;;;6191796;28;20551;-79
2021/11/10 11:40:55;;;;;;;9.32;5.43;;;15.80;53.20;;;;;;6212575;28;20124;-80
2021/11/10 11:43:57;;;;;;;14.95;7.00;;;15.60;53.90;;;;;;6227172;28;20065;-81
2021/11/10 11:46:59;;;;;;;14.40;5.28;;;15.40;54.10;;;;;;6231883;28;20054;-81
2021/11/10 11:50:05;;;;;;;9.23;5.60;;;15.30;54.90;;;;;;6208934;28;20046;-82
2021/11/10 11:53:08;;;;;;;14.00;5.13;;;15.20;54.90;;;;;;6203984;28;20045;-79
2021/11/10 11:56:13;;;;;;;8.52;5.38;;;15.20;55.10;;;;;;6200315;28;20611;-79
2021/11/10 11:59:16;;;;;;;10.15;6.65;;;15.00;55.30;;;;;;6202436;28;20423;-82
2021/11/10 12:02:23;;;;;;;10.93;6.50;;;14.80;56.00;;;;;;6205314;28;20049;-81
2021/11/10 12:05:27;;;;;;;11.27;5.75;;;14.60;56.50;;;;;;6200763;28;20046;-81
2021/11/10 12:08:39;;;;;;;15.13;6.38;;;14.30;57.20;;;;;;6203937;28;20050;-80
2021/11/10 12:11:42;;;;;;;11.57;6.25;;;14.10;58.30;;;;;;6224351;28;20503;-81
2021/11/10 12:14:58;;;;;;;14.52;6.85;;;13.90;57.90;;;;;;6227351;28;20128;-82
2021/11/10 12:18:06;;;;;;;14.98;8.13;;;13.70;58.70;;;;;;6211643;28;20133;-79
2021/11/10 12:21:10;;;;;;;;;;;13.40;59.50;;;;;;6206272;28;20046;-79
2021/11/10 12:24:17;;;;;;;16.75;8.45;;;13.20;60.20;;;;;;6202591;28;19976;-81
2021/11/10 12:27:29;;;;;;;13.23;7.70;;;13.10;60.60;;;;;;6204108;28;20065;-81
2021/11/10 12:30:30;;;;;;;12.02;7.35;;;13.00;61.90;;;;;;6204287;28;20081;-79
2021/11/10 12:33:33;;;;;;;23.95;11.20;;;13.00;61.60;;;;;;6202899;28;20042;-81
2021/11/10 12:36:53;;;;;;;15.23;7.90;;;13.10;61.50;;;;;;6187568;28;20061;-79
2021/11/10 12:40:11;;;;;;;13.60;8.15;;;13.10;61.30;;;;;;6170746;28;20513;-83
2021/11/10 12:43:16;;;;;;;14.52;7.00;;;13.10;61.10;;;;;;6179737;28;20122;-82
2021/11/10 12:46:20;;;;;;;13.63;7.45;;;13.00;61.40;;;;;;6179583;28;20050;-82
2021/11/10 12:49:22;;;;;;;22.38;12.55;;;12.90;61.50;;;;;;6194637;28;20504;-81
2021/11/10 12:52:25;;;;;;;14.02;7.63;;;12.90;61.70;;;;;;6203277;28;20090;-83
2021/11/10 12:55:29;;;;;;;19.88;7.55;;;12.80;61.90;;;;;;6203783;28;20058;-82
2021/11/10 12:58:31;;;;;;;18.10;8.30;;;12.80;62.30;;;;;;6203197;28;20045;-82
2021/11/10 13:01:34;;;;;;;22.27;12.40;;;12.70;62.60;;;;;;6203508;28;20070;-83
2021/11/10 13:04:36;;;;;;;19.73;9.27;;;12.60;63.00;;;;;;6204629;28;20078;-82
2021/11/10 13:07:45;;;;;;;24.00;12.68;;;12.60;63.20;;;;;;6204181;28;20139;-82
2021/11/10 13:10:47;;;;;;;23.58;13.45;;;12.60;63.30;;;;;;6218316;28;20569;-85
2021/11/10 13:13:51;;;;;;;13.80;8.02;;;12.60;63.40;;;;;;6228479;28;20046;-82
2021/11/10 13:17:01;;;;;;;15.73;7.97;;;12.70;63.30;;;;;;6216622;28;20050;-80
2021/11/10 13:20:06;;;;;;;13.45;9.07;;;12.70;63.40;;;;;;6202677;28;20056;-80
2021/11/10 13:23:09;;;;;;;15.55;8.73;;;12.60;63.40;;;;;;6203488;28;20117;-83
2021/11/10 13:26:12;;;;;;;12.50;7.55;;;12.70;63.40;;;;;;6203815;28;20046;-84
2021/11/10 13:29:14;;;;;;;19.73;8.80;;;12.70;63.50;;;;;;6203627;28;20105;-83
2021/11/10 13:32:18;;;;;;;19.23;7.38;;;12.80;63.50;;;;;;6203008;28;20073;-85
2021/11/10 13:35:20;;;;;;;11.25;6.55;;;12.90;63.30;;;;;;6203346;28;20112;-80
2021/11/10 13:38:42;;;;;;;15.90;7.28;;;12.90;63.20;;;;;;6201937;28;20053;-80
2021/11/10 13:41:46;;;;;;;11.57;7.22;;;12.90;63.20;;;;;;6201264;28;20042;-83
2021/11/10 13:44:48;;;;;;;9.90;6.63;;;12.90;63.20;;;;;;6204905;28;20064;-83
2021/11/10 13:47:55;;;;;;;14.05;7.75;;;13.00;63.30;;;;;;6202757;28;20189;-84
2021/11/10 13:50:57;;;;;;;14.55;8.25;;;12.90;63.10;;;;;;6183539;28;20077;-81
2021/11/10 13:54:05;;;;;;;12.90;8.18;;;12.90;63.00;;;;;;6201368;28;20048;-79
2021/11/10 13:57:16;;;;;;;11.75;6.72;;;12.90;63.80;;;;;;6192768;28;20046;-81
2021/11/10 14:00:19;;;;;;;18.90;9.95;;;12.90;63.30;;;;;;6181653;28;20114;-80
2021/11/10 14:03:24;;;;;;;14.00;8.15;;;12.80;63.30;;;;;;6181587;28;20086;-80
2021/11/10 14:06:26;;;;;;;13.77;8.43;;;12.80;63.40;;;;;;6187214;28;20058;-79
2021/11/10 14:09:29;;;;;;;11.88;7.07;;;12.80;63.50;;;;;;6201551;28;20105;-79
2021/11/10 14:12:37;;;;;;;14.52;7.35;;;12.70;63.70;;;;;;6218708;28;20050;-82
2021/11/10 14:15:43;;;;;;;15.48;9.13;;;12.60;64.00;;;;;;6205251;28;20050;-82
2021/11/10 14:18:45;;;;;;;17.30;8.50;;;12.40;64.40;;;;;;6205767;28;20058;-80
2021/11/10 14:21:46;;;;;;;14.55;6.90;;;12.40;64.80;;;;;;6203966;28;20575;-78
2021/11/10 14:24:50;;;;;;;15.60;7.40;;;12.40;65.10;;;;;;6205537;28;20188;-82
2021/11/10 14:27:56;;;;;;;19.17;8.48;;;12.40;65.20;;;;;;6203791;28;20054;-81
2021/11/10 14:31:01;;;;;;;15.60;7.60;;;12.40;65.30;;;;;;6204634;28;20050;-80
2021/11/10 14:34:08;;;;;;;20.67;7.18;;;12.30;65.40;;;;;;6203333;28;20042;-79
2021/11/10 14:37:23;;;;;;;13.68;7.28;;;12.20;65.80;;;;;;6183914;28;20130;-79
2021/11/10 14:40:36;;;;;;;17.20;6.95;;;12.10;66.30;;;;;;6179009;28;20432;-79
2021/11/10 14:43:41;;;;;;;14.65;7.18;;;12.00;66.70;;;;;;6178403;28;20046;-79
2021/11/10 14:46:44;;;;;;;13.23;7.18;;;11.90;67.10;;;;;;6179183;28;20050;-79
2021/11/10 14:49:46;;;;;;;16.60;7.65;;;11.80;67.40;;;;;;6177835;28;20049;-79
2021/11/10 14:53:10;;;;;;;16.90;8.00;;;11.70;67.80;;;;;;6178270;28;20043;-78
2021/11/10 14:56:16;;;;;;;12.73;7.85;;;11.60;68.40;;;;;;6177771;28;20107;-79
2021/11/10 14:59:24;;;;;;;16.13;7.75;;;11.40;68.70;;;;;;6178203;28;20098;-79
2021/11/10 15:02:30;;;;;;;16.70;7.25;;;11.30;68.80;;;;;;6177895;28;20050;-79
2021/11/10 15:05:40;;;;;;;22.38;8.50;;;11.20;69.30;;;;;;6177698;28;20077;-78
2021/11/10 15:08:53;;;;;;;17.48;8.55;;;11.10;69.80;;;;;;6177434;28;20073;-79
2021/11/10 15:11:58;;;;;;;18.45;8.20;;;10.90;70.30;;;;;;6182341;28;20057;-78
2021/11/10 15:14:59;;;;;;;17.02;8.23;;;10.80;70.80;;;;;;6201445;28;20631;-78
2021/11/10 15:18:07;;;;;;;17.00;7.65;;;10.70;71.00;;;;;;6201610;28;20552;-78
2021/11/10 15:21:12;;;;;;;20.17;8.07;;;10.50;71.90;;;;;;6201571;28;20093;-78
2021/11/10 15:24:14;;;;;;;24.75;8.50;;;10.40;72.10;;;;;;6201423;28;20050;-79
2021/11/10 15:27:18;;;;;;;14.93;7.68;;;10.20;72.80;;;;;;6202569;28;20050;-80
2021/11/10 15:30:21;;;;;;;17.17;6.60;;;10.10;73.50;;;;;;6202957;28;20046;-79
2021/11/10 15:33:29;;;;;;;21.15;8.48;;;9.90;74.10;;;;;;6201445;28;20550;-81
2021/11/10 15:36:31;;;;;;;15.82;7.97;;;9.80;74.50;;;;;;6210998;28;20042;-82
2021/11/10 15:39:33;;;;;;;17.02;8.45;;;9.60;75.00;;;;;;6194286;28;20432;-81
2021/11/10 15:42:39;;;;;;;18.17;8.55;;;9.50;75.20;;;;;;6224800;28;20050;-83
2021/11/10 15:45:41;;;;;;;22.13;9.48;;;9.30;75.70;;;;;;6185744;28;20061;-82
2021/11/10 15:48:43;;;;;;;16.20;7.57;;;9.30;76.20;;;;;;6179204;28;20447;-81
2021/11/10 15:51:45;;;;;;;16.60;8.07;;;9.20;76.40;;;;;;6191371;28;20046;-83
2021/11/10 15:54:47;;;;;;;38.42;14.52;;;9.00;76.80;;;;;;6189339;28;20056;-82